createdAt,value
2023-04-28T00:01:56.375Z,93922.72
2023-04-28T00:06:59.330Z,93908.88
2023-04-28T00:12:02.944Z,93908.31
2023-04-28T00:17:05.901Z,93910.59
2023-04-28T00:22:09.025Z,93905.41
2023-04-28T00:27:11.939Z,93902.03
2023-04-28T00:32:15.011Z,93913.44
2023-04-28T00:37:17.953Z,93918.09
2023-04-28T00:42:20.936Z,93899.50
2023-04-28T00:47:24.399Z,93906.31
2023-04-28T00:52:28.482Z,93891.66
2023-04-28T00:57:32.408Z,93904.13
2023-04-28T01:02:37.421Z,93907.88
2023-04-28T01:07:40.565Z,93909.09
2023-04-28T01:12:45.035Z,93909.91
2023-04-28T01:17:48.733Z,93899.13
2023-04-28T01:22:51.941Z,93909.91
2023-04-28T01:27:56.022Z,93914.75
2023-04-28T01:32:59.346Z,93909.25
2023-04-28T01:38:02.405Z,93916.63
2023-04-28T01:43:05.301Z,93913.19
2023-04-28T01:48:08.313Z,93914.19
2023-04-28T01:53:11.835Z,93919.50
2023-04-28T01:58:15.125Z,93920.91
2023-04-28T02:03:18.132Z,93907.22
2023-04-28T02:08:21.483Z,93933.91
2023-04-28T02:13:24.677Z,93929.09
2023-04-28T02:18:29.592Z,93932.53
2023-04-28T02:23:36.336Z,93931.28
2023-04-28T02:28:41.313Z,93928.75
2023-04-28T02:33:44.367Z,93930.59
2023-04-28T02:38:47.989Z,93930.84
2023-04-28T02:43:51.021Z,93932.59
2023-04-28T02:48:54.163Z,93932.34
2023-04-28T02:53:57.026Z,93936.91
2023-04-28T02:59:00.321Z,93950.94
2023-04-28T03:04:03.805Z,93946.13
2023-04-28T03:09:07.202Z,93949.78
2023-04-28T03:14:10.718Z,93958.31
2023-04-28T03:19:13.887Z,93960.94
2023-04-28T03:24:16.888Z,93947.34
2023-04-28T03:29:20.802Z,93960.66
2023-04-28T03:34:24.078Z,93961.44
2023-04-28T03:39:27.004Z,93962.03
2023-04-28T03:44:29.968Z,93973.09
2023-04-28T03:49:33.825Z,93974.25
2023-04-28T03:54:37.053Z,93976.00
2023-04-28T03:59:40.207Z,93971.19
2023-04-28T04:04:43.210Z,93989.69
2023-04-28T04:09:46.325Z,93988.66
2023-04-28T04:14:49.255Z,93991.00
2023-04-28T04:19:52.629Z,93999.19
2023-04-28T04:24:55.706Z,93995.56
2023-04-28T04:29:58.602Z,93993.59
2023-04-28T04:35:02.838Z,94011.72
2023-04-28T04:40:06.517Z,94012.75
2023-04-28T04:45:16.304Z,94022.84
2023-04-28T04:50:19.424Z,94031.31
2023-04-28T04:55:22.516Z,94039.50
2023-04-28T05:00:25.441Z,94033.38
2023-04-28T05:05:29.998Z,94037.81
2023-04-28T05:10:45.286Z,94039.38
2023-04-28T05:15:48.751Z,94043.94
2023-04-28T05:21:06.658Z,94025.47
2023-04-28T05:26:09.937Z,94063.31
2023-04-28T05:31:12.957Z,94038.59
2023-04-28T05:36:17.515Z,94049.38
2023-04-28T05:41:22.254Z,94056.16
2023-04-28T05:46:30.651Z,94057.56
2023-04-28T05:51:35.834Z,94063.88
2023-04-28T05:56:39.324Z,94066.66
2023-04-28T06:01:45.835Z,94072.56
2023-04-28T06:06:49.327Z,94072.13
2023-04-28T06:11:55.199Z,94070.53
2023-04-28T06:16:58.828Z,94075.47
2023-04-28T06:22:01.703Z,94074.03
2023-04-28T06:27:06.738Z,94064.06
2023-04-28T06:32:09.689Z,94079.34
2023-04-28T06:37:13.690Z,94067.19
2023-04-28T06:42:20.578Z,94062.25
2023-04-28T06:47:37.625Z,94059.47
2023-04-28T06:52:45.613Z,94071.88
2023-04-28T06:57:49.452Z,94084.47
2023-04-28T07:02:53.542Z,94078.28
2023-04-28T07:07:57.186Z,94051.72
2023-04-28T07:13:00.994Z,94081.56
2023-04-28T07:18:04.978Z,94086.22
2023-04-28T07:23:09.204Z,94099.63
2023-04-28T07:28:14.512Z,94103.97
2023-04-28T07:33:18.521Z,94092.25
2023-04-28T07:38:22.653Z,94096.72
2023-04-28T07:43:26.616Z,94086.84
2023-04-28T07:48:30.890Z,94099.38
2023-04-28T07:53:35.408Z,94092.53
2023-04-28T07:58:39.477Z,94100.28
2023-04-28T08:03:43.006Z,94098.41
2023-04-28T08:08:46.282Z,94099.78
2023-04-28T08:13:49.990Z,94105.84
2023-04-28T08:18:53.557Z,94114.16
2023-04-28T08:23:56.809Z,94118.63
2023-04-28T08:29:00.021Z,94118.63
2023-04-28T08:34:03.436Z,94097.69
2023-04-28T08:39:08.759Z,94102.59
2023-04-28T08:44:12.638Z,94112.56
2023-04-28T08:49:17.847Z,94121.91
2023-04-28T08:54:26.478Z,94116.44
2023-04-28T08:59:33.301Z,94119.63
2023-04-28T09:04:37.231Z,94126.59
2023-04-28T09:09:41.777Z,94125.69
2023-04-28T09:14:45.059Z,94134.94
2023-04-28T09:19:49.474Z,94140.47
2023-04-28T09:24:53.575Z,94131.59
2023-04-28T09:29:57.568Z,94136.63
2023-04-28T09:35:01.991Z,94143.63
2023-04-28T09:40:10.559Z,94126.25
2023-04-28T09:45:16.109Z,94135.03
2023-04-28T09:50:19.719Z,94139.44
2023-04-28T09:55:23.527Z,94146.47
2023-04-28T10:00:27.155Z,94134.75
2023-04-28T10:05:32.071Z,94135.13
2023-04-28T10:10:38.475Z,94149.09
2023-04-28T10:15:47.507Z,94143.97
2023-04-28T10:20:57.733Z,94140.84
2023-04-28T10:26:01.029Z,94130.91
2023-04-28T10:31:13.279Z,94138.41
2023-04-28T10:36:55.205Z,94131.81
2023-04-28T10:41:58.676Z,94133.22
2023-04-28T10:47:09.939Z,94114.38
2023-04-28T10:52:32.711Z,94117.94
2023-04-28T10:57:36.916Z,94111.19
2023-04-28T11:02:44.390Z,94116.75
2023-04-28T11:08:26.943Z,94119.06
2023-04-28T11:13:34.632Z,94107.09
2023-04-28T11:19:05.791Z,94107.00
2023-04-28T11:24:11.318Z,94107.22
2023-04-28T11:29:15.731Z,94120.44
2023-04-28T11:34:23.529Z,94115.81
2023-04-28T11:39:29.483Z,94116.56
2023-04-28T11:44:33.144Z,94118.25
2023-04-28T11:49:47.990Z,94114.16
2023-04-28T11:54:56.304Z,94118.81
2023-04-28T12:00:14.836Z,94108.16
2023-04-28T12:05:18.896Z,94101.72
2023-04-28T12:10:22.719Z,94094.81
2023-04-28T12:15:41.578Z,94077.97
2023-04-28T12:20:45.203Z,94076.06
2023-04-28T12:25:48.710Z,94070.19
2023-04-28T12:31:04.165Z,94069.66
2023-04-28T12:36:07.984Z,94059.66
2023-04-28T12:41:12.032Z,94058.28
2023-04-28T12:46:16.013Z,94069.78
2023-04-28T12:51:19.435Z,94062.59
2023-04-28T12:56:23.972Z,94049.69
2023-04-28T13:01:27.706Z,94044.97
2023-04-28T13:06:31.673Z,94051.47
2023-04-28T13:11:35.693Z,94052.78
2023-04-28T13:16:39.348Z,94046.72
2023-04-28T13:21:43.181Z,94058.81
2023-04-28T13:26:47.166Z,94047.88
2023-04-28T13:31:50.352Z,94031.59
2023-04-28T13:36:55.637Z,94005.50
2023-04-28T13:42:00.156Z,93988.56
2023-04-28T13:47:03.540Z,93994.34
2023-04-28T13:52:07.498Z,93998.34
2023-04-28T13:57:14.038Z,94003.97
2023-04-28T14:02:18.655Z,94004.84
2023-04-28T14:13:01.003Z,93987.88
2023-04-28T14:18:05.235Z,93997.31
2023-04-28T14:23:08.846Z,93964.63
2023-04-28T14:28:12.042Z,93964.00
2023-04-28T14:33:15.526Z,93976.19
2023-04-28T14:38:19.654Z,93962.94
2023-04-28T14:43:24.057Z,93962.09
2023-04-28T14:48:27.958Z,93927.16
2023-04-28T14:53:32.367Z,93930.28
2023-04-28T14:58:36.004Z,93940.50
2023-04-28T15:03:40.118Z,93960.72
2023-04-28T15:08:43.856Z,93960.41
2023-04-28T15:13:48.142Z,93938.56
2023-04-28T15:18:52.209Z,93947.47
2023-04-28T15:23:55.726Z,93952.69
2023-04-28T15:29:01.050Z,93920.88
2023-04-28T15:34:04.072Z,93938.16
2023-04-28T15:39:08.164Z,93957.91
2023-04-28T15:44:11.910Z,93927.03
2023-04-28T15:49:15.964Z,93939.66
2023-04-28T15:54:19.465Z,93927.50
2023-04-28T15:59:23.257Z,93905.56
2023-04-28T16:04:27.162Z,93940.53
2023-04-28T16:09:31.497Z,93941.09
2023-04-28T16:14:36.869Z,93926.44
2023-04-28T16:19:40.368Z,93906.53
2023-04-28T16:24:45.430Z,93905.13
2023-04-28T16:29:48.920Z,93902.97
2023-04-28T16:34:52.576Z,93911.94
2023-04-28T16:39:56.980Z,93901.06
2023-04-28T16:45:00.447Z,93901.66
2023-04-28T16:50:04.871Z,93908.88
2023-04-28T16:55:09.179Z,93900.00
2023-04-28T17:00:13.613Z,93885.78
2023-04-28T17:05:18.129Z,93900.41
2023-04-28T17:10:25.614Z,93893.66
2023-04-28T17:15:28.634Z,93907.97
2023-04-28T17:20:32.456Z,93897.88
2023-04-28T17:25:39.006Z,93910.53
2023-04-28T17:30:46.930Z,93889.63
2023-04-28T17:35:51.130Z,93896.84
2023-04-28T17:40:54.339Z,93910.97
2023-04-28T17:45:58.241Z,93873.72
2023-04-28T17:51:09.094Z,93898.50
2023-04-28T17:56:12.438Z,93916.19
2023-04-28T18:01:16.112Z,93927.31
2023-04-28T18:06:22.678Z,93915.69
2023-04-28T18:11:28.300Z,93911.78
2023-04-28T18:16:31.894Z,93925.16
2023-04-28T18:21:35.402Z,93927.16
2023-04-28T18:26:39.264Z,93926.47
2023-04-28T18:31:42.908Z,93943.34
2023-04-28T18:36:47.025Z,93915.88
2023-04-28T18:41:50.497Z,93927.25
2023-04-28T18:46:54.487Z,93900.59
2023-04-28T18:52:03.764Z,93939.44
2023-04-28T18:57:07.269Z,93946.13
2023-04-28T19:02:10.845Z,93945.75
2023-04-28T19:07:14.889Z,93926.53
2023-04-28T19:12:19.523Z,93931.22
2023-04-28T19:17:23.378Z,93943.78
2023-04-28T19:22:36.666Z,93925.75
2023-04-28T19:27:43.409Z,93919.81
2023-04-28T19:32:47.222Z,93936.34
2023-04-28T19:37:50.765Z,93910.84
2023-04-28T19:42:55.803Z,93937.91
2023-04-28T19:47:59.098Z,93932.41
2023-04-28T19:53:03.513Z,93939.88
2023-04-28T19:58:07.124Z,93903.34
2023-04-28T20:03:11.090Z,93941.41
2023-04-28T20:08:15.385Z,93943.41
2023-04-28T20:13:19.993Z,93922.97
2023-04-28T20:18:24.032Z,93924.50
2023-04-28T20:23:29.560Z,93932.75
2023-04-28T20:28:33.415Z,93940.25
2023-04-28T20:33:37.115Z,93923.78
2023-04-28T20:38:42.217Z,93916.31
2023-04-28T20:43:47.227Z,93918.69
2023-04-28T20:48:50.846Z,93932.00
2023-04-28T20:53:54.735Z,93915.50
2023-04-28T20:58:58.609Z,93922.13
2023-04-28T21:04:02.144Z,93894.22
2023-04-28T21:09:06.103Z,93923.69
2023-04-28T21:14:10.666Z,93888.66
2023-04-28T21:19:14.187Z,93910.50
2023-04-28T21:24:17.764Z,93917.91
2023-04-28T21:29:21.307Z,93912.78
2023-04-28T21:34:25.545Z,93910.78
2023-04-28T21:39:29.767Z,93911.94
2023-04-28T21:44:33.132Z,93901.31
2023-04-28T21:49:36.733Z,93891.09
2023-04-28T21:54:40.214Z,93878.84
2023-04-28T21:59:43.268Z,93889.06
2023-04-28T22:04:47.246Z,93860.72
2023-04-28T22:09:50.563Z,93878.69
2023-04-28T22:14:53.805Z,93871.66
2023-04-28T22:19:57.486Z,93859.91
2023-04-28T22:25:00.943Z,93881.06
2023-04-28T22:30:05.121Z,93857.50
2023-04-28T22:35:08.785Z,93852.03
2023-04-28T22:40:12.768Z,93854.34
2023-04-28T22:45:16.744Z,93841.50
2023-04-28T22:50:20.910Z,93834.13
2023-04-28T22:55:24.375Z,93835.44
2023-04-28T23:00:28.335Z,93824.09
2023-04-28T23:05:31.833Z,93824.44
2023-04-28T23:10:35.266Z,93798.91
2023-04-28T23:15:38.815Z,93786.34
2023-04-28T23:20:42.453Z,93785.94
2023-04-28T23:25:46.126Z,93795.72
2023-04-28T23:30:49.242Z,93796.84
2023-04-28T23:35:53.804Z,93812.56
2023-04-28T23:40:57.563Z,93798.06
2023-04-28T23:46:01.350Z,93778.53
2023-04-28T23:51:04.972Z,93796.22
2023-04-28T23:56:08.150Z,93780.50
